Time;durP1;ratioP1;P1;durP2;ratioP2;P2;SDS_P1;SDS_P2;PMS_P1;PMS_P2;Temp;Humidity;BMP_temperature;BMP_pressure;BME280_temperature;BME280_humidity;BME280_pressure;Samples;Min_cycle;Max_cycle;Signal;HPM_P1;HPM_P2
2022/05/03 00:00:09;;;;;;;10.75;7.45;;;7.10;99.90;;;;;;5031064;28;20029;-51
2022/05/03 00:02:53;;;;;;;10.32;7.32;;;7.10;99.90;;;;;;5030636;28;20473;-53
2022/05/03 00:05:43;;;;;;;12.90;8.73;;;7.00;99.90;;;;;;5031564;28;20018;-50
2022/05/03 00:08:26;;;;;;;10.43;9.00;;;6.90;99.90;;;;;;5030691;28;20025;-54
2022/05/03 00:11:25;;;;;;;11.05;7.95;;;6.90;99.90;;;;;;5031501;28;20134;-53
2022/05/03 00:14:30;;;;;;;9.45;7.63;;;6.90;99.90;;;;;;5030630;28;20388;-55
2022/05/03 00:16:56;;;;;;;7.68;6.93;;;6.90;99.90;;;;;;5030876;28;20033;-54
2022/05/03 00:19:23;;;;;;;11.25;7.57;;;6.80;99.90;;;;;;5030934;28;20029;-54
2022/05/03 00:21:49;;;;;;;12.57;9.73;;;6.80;99.90;;;;;;5030841;28;20053;-54
2022/05/03 00:24:16;;;;;;;10.38;8.20;;;6.70;99.90;;;;;;5031065;28;20059;-54
2022/05/03 00:26:42;;;;;;;11.32;8.57;;;6.60;99.90;;;;;;5030677;28;20033;-51
2022/05/03 00:29:10;;;;;;;8.88;7.97;;;6.60;99.90;;;;;;5029526;28;20072;-54
2022/05/03 00:31:36;;;;;;;13.32;9.35;;;6.60;99.90;;;;;;5030330;28;20014;-52
2022/05/03 00:34:03;;;;;;;9.73;8.43;;;6.60;99.90;;;;;;5030604;28;20033;-53
2022/05/03 00:36:28;;;;;;;13.48;8.30;;;6.60;99.90;;;;;;5030547;28;20117;-53
2022/05/03 00:38:54;;;;;;;10.25;8.88;;;6.70;99.90;;;;;;5030805;28;20033;-48
2022/05/03 00:41:46;;;;;;;13.13;8.45;;;6.80;99.90;;;;;;5030814;28;20506;-52
2022/05/03 00:45:00;;;;;;;10.65;8.20;;;6.80;99.90;;;;;;5030713;28;20424;-56
2022/05/03 00:47:31;;;;;;;11.13;7.85;;;6.60;99.90;;;;;;5030642;28;20352;-52
2022/05/03 00:50:03;;;;;;;10.00;8.10;;;6.50;99.90;;;;;;5030927;28;20442;-53
2022/05/03 00:52:45;;;;;;;9.20;7.95;;;6.50;99.90;;;;;;5030994;28;20029;-54
2022/05/03 00:55:22;;;;;;;10.63;8.90;;;6.40;99.90;;;;;;5031134;28;20465;-50
2022/05/03 00:58:25;;;;;;;10.57;8.68;;;6.40;99.90;;;;;;5030896;28;20025;-53
2022/05/03 01:01:11;;;;;;;10.85;8.15;;;6.40;99.90;;;;;;5030722;28;20052;-54
2022/05/03 01:03:47;;;;;;;10.85;8.85;;;6.30;99.90;;;;;;5034026;28;20037;-53
2022/05/03 01:06:26;;;;;;;11.43;8.73;;;6.20;99.90;;;;;;5034681;28;20030;-54
2022/05/03 01:09:05;;;;;;;13.68;9.18;;;6.10;99.90;;;;;;5033524;28;20636;-54
2022/05/03 01:11:47;;;;;;;10.05;8.98;;;6.20;99.90;;;;;;5034019;28;20361;-54
2022/05/03 01:14:27;;;;;;;11.35;8.70;;;6.20;99.90;;;;;;5034489;28;20124;-49
2022/05/03 01:17:04;;;;;;;13.48;7.90;;;6.10;99.90;;;;;;5034676;28;20024;-51
2022/05/03 01:19:50;;;;;;;8.07;7.20;;;6.10;99.90;;;;;;5034167;28;20473;-51
2022/05/03 01:22:38;;;;;;;10.02;7.70;;;6.00;99.90;;;;;;5033378;28;20106;-50
2022/05/03 01:25:13;;;;;;;10.20;8.38;;;6.00;99.90;;;;;;5034033;28;20536;-54
2022/05/03 01:27:57;;;;;;;12.80;9.05;;;6.00;99.90;;;;;;5033739;28;20052;-55
2022/05/03 01:30:23;;;;;;;;;;;6.00;99.90;;;;;;5033404;28;20028;-53
2022/05/03 01:32:51;;;;;;;11.13;7.35;;;6.00;99.90;;;;;;5032830;28;19905;-51
2022/05/03 01:35:21;;;;;;;10.02;7.88;;;6.00;99.90;;;;;;5032903;28;20029;-54
2022/05/03 01:38:10;;;;;;;9.52;7.68;;;6.00;99.90;;;;;;5033172;28;20022;-53
2022/05/03 01:40:54;;;;;;;8.40;7.30;;;6.00;99.90;;;;;;5032681;28;20025;-55
2022/05/03 01:43:40;;;;;;;14.65;8.05;;;6.00;99.90;;;;;;5033324;28;20422;-48
2022/05/03 01:46:15;;;;;;;14.18;9.63;;;6.00;99.90;;;;;;5032683;28;20476;-51
2022/05/03 01:52:14;;;;;;;8.70;7.78;;;5.90;99.90;;;;;;5032942;28;20099;-54
2022/05/03 01:54:39;;;;;;;8.10;7.13;;;5.90;99.90;;;;;;5033193;28;20025;-51
2022/05/03 01:57:28;;;;;;;9.43;8.48;;;5.90;99.90;;;;;;5033213;28;20457;-50
2022/05/03 02:00:08;;;;;;;10.90;8.32;;;5.80;99.90;;;;;;5033149;28;20023;-51
2022/05/03 02:02:56;;;;;;;9.38;7.82;;;5.80;99.90;;;;;;5033014;28;20033;-53
2022/05/03 02:05:43;;;;;;;11.15;10.00;;;5.70;99.90;;;;;;5032969;28;20100;-50
2022/05/03 02:08:13;;;;;;;9.82;8.82;;;5.80;99.90;;;;;;5033179;28;20051;-53
2022/05/03 02:10:39;;;;;;;10.02;7.85;;;5.80;99.90;;;;;;5033637;28;20033;-51
2022/05/03 02:16:37;;;;;;;10.63;7.75;;;5.80;99.90;;;;;;5033379;28;20052;-50
2022/05/03 02:19:27;;;;;;;9.40;7.90;;;5.90;99.90;;;;;;5033259;28;20048;-51
2022/05/03 02:22:18;;;;;;;10.10;8.18;;;5.90;99.90;;;;;;5033104;28;20473;-54
2022/05/03 02:24:56;;;;;;;8.75;7.43;;;5.90;99.90;;;;;;5033348;28;20124;-51
2022/05/03 02:27:25;;;;;;;8.35;7.40;;;5.80;99.90;;;;;;5033084;28;20013;-55
2022/05/03 02:29:51;;;;;;;11.20;7.78;;;5.70;99.90;;;;;;5033053;28;20455;-54
2022/05/03 02:32:30;;;;;;;7.65;6.88;;;5.60;99.90;;;;;;5032835;28;20033;-54
2022/05/03 02:35:05;;;;;;;9.20;7.60;;;5.60;99.90;;;;;;5032897;28;20112;-53
2022/05/03 02:37:36;;;;;;;9.07;7.65;;;5.50;99.90;;;;;;5033001;28;20048;-54
2022/05/03 02:40:13;;;;;;;9.43;8.05;;;5.50;99.90;;;;;;5033018;28;20028;-57
2022/05/03 02:42:40;;;;;;;7.82;7.03;;;5.50;99.90;;;;;;5031722;28;20033;-52
2022/05/03 02:45:07;;;;;;;8.95;7.60;;;5.50;99.90;;;;;;5031628;28;20117;-54
2022/05/03 02:47:48;;;;;;;12.13;9.38;;;5.40;99.90;;;;;;5032907;28;20491;-54
2022/05/03 02:50:22;;;;;;;11.52;7.97;;;5.40;99.90;;;;;;5032849;28;20071;-51
2022/05/03 02:53:05;;;;;;;16.40;8.23;;;5.40;99.90;;;;;;5032747;28;20452;-50
2022/05/03 02:55:45;;;;;;;11.57;7.50;;;5.30;99.90;;;;;;5032682;28;20041;-52
2022/05/03 02:58:36;;;;;;;11.45;8.43;;;5.20;99.90;;;;;;5032757;28;20021;-50
2022/05/03 03:04:11;;;;;;;9.80;7.78;;;5.20;99.90;;;;;;5032606;28;20032;-51
2022/05/03 03:06:41;;;;;;;10.02;8.07;;;5.30;99.90;;;;;;5032602;28;20017;-52
2022/05/03 03:09:08;;;;;;;8.85;7.55;;;5.30;99.90;;;;;;5032478;28;20022;-51
2022/05/03 03:11:53;;;;;;;10.00;8.30;;;5.30;99.90;;;;;;5031738;28;20025;-48
2022/05/03 03:14:23;;;;;;;11.70;9.13;;;5.30;99.90;;;;;;5031400;28;20041;-49
2022/05/03 03:16:54;;;;;;;9.00;7.05;;;5.30;99.90;;;;;;5032178;28;20666;-51
2022/05/03 03:19:33;;;;;;;14.30;8.48;;;5.30;99.90;;;;;;5032175;28;20033;-51
2022/05/03 03:22:01;;;;;;;12.35;8.07;;;5.30;99.90;;;;;;5032399;28;20021;-51
2022/05/03 03:24:31;;;;;;;12.38;7.00;;;5.30;99.90;;;;;;5031616;28;20052;-52
2022/05/03 03:27:02;;;;;;;10.07;7.22;;;5.30;99.90;;;;;;5032250;28;20373;-56
2022/05/03 03:29:30;;;;;;;8.52;7.65;;;5.20;99.90;;;;;;5032178;28;20025;-53
2022/05/03 03:31:58;;;;;;;12.18;8.13;;;5.20;99.90;;;;;;5032037;28;20044;-49
2022/05/03 03:34:25;;;;;;;8.57;7.72;;;5.20;99.90;;;;;;5032027;28;20044;-48
2022/05/03 03:37:01;;;;;;;17.42;9.60;;;5.20;99.90;;;;;;5031869;28;20036;-54
2022/05/03 03:39:30;;;;;;;10.77;7.22;;;5.10;99.90;;;;;;5031970;28;20017;-54
2022/05/03 03:42:01;;;;;;;11.32;7.40;;;5.10;99.90;;;;;;5031879;28;20025;-53
2022/05/03 03:44:27;;;;;;;9.32;7.90;;;5.10;99.90;;;;;;5031877;28;20018;-51
2022/05/03 03:46:53;;;;;;;12.52;8.32;;;5.00;99.90;;;;;;5031785;28;20017;-51
2022/05/03 03:49:19;;;;;;;10.07;7.90;;;5.00;99.90;;;;;;5031757;28;20041;-54
2022/05/03 03:51:45;;;;;;;8.82;7.93;;;5.10;99.90;;;;;;5031655;28;20099;-51
2022/05/03 03:54:11;;;;;;;10.65;8.05;;;5.00;99.90;;;;;;5030265;28;20484;-51
2022/05/03 03:56:38;;;;;;;9.40;7.82;;;5.00;99.90;;;;;;5031664;28;20665;-53
2022/05/03 03:59:04;;;;;;;9.57;7.38;;;5.10;99.90;;;;;;5031723;28;20024;-49
2022/05/03 04:01:31;;;;;;;10.45;7.88;;;5.10;99.90;;;;;;5030299;28;20022;-50
2022/05/03 04:03:59;;;;;;;11.38;8.80;;;5.10;99.90;;;;;;5030350;28;20473;-54
2022/05/03 04:06:24;;;;;;;17.77;7.70;;;5.10;99.90;;;;;;5030292;28;20544;-56
2022/05/03 04:08:51;;;;;;;12.80;8.25;;;5.10;99.90;;;;;;5031545;28;20029;-51
2022/05/03 04:11:18;;;;;;;10.73;7.65;;;5.10;99.90;;;;;;5031578;28;20352;-52
2022/05/03 04:13:45;;;;;;;9.90;7.97;;;5.10;99.90;;;;;;5031515;28;20069;-51
2022/05/03 04:16:10;;;;;;;12.82;7.85;;;5.20;99.90;;;;;;5029910;28;20046;-54
2022/05/03 04:18:45;;;;;;;14.68;8.95;;;5.20;99.90;;;;;;5031356;28;20025;-50
2022/05/03 04:21:15;;;;;;;10.48;7.07;;;5.30;99.90;;;;;;5031463;28;20029;-53
2022/05/03 04:23:41;;;;;;;12.50;8.63;;;5.30;99.90;;;;;;5031304;28;20453;-53
2022/05/03 04:26:08;;;;;;;9.88;8.07;;;5.40;99.90;;;;;;5031403;28;20084;-52
2022/05/03 04:28:35;;;;;;;9.23;8.00;;;5.40;99.90;;;;;;5029802;28;20029;-49
2022/05/03 04:31:00;;;;;;;8.43;7.57;;;5.50;99.90;;;;;;5031311;28;20033;-53
2022/05/03 04:33:26;;;;;;;8.38;7.50;;;5.60;99.90;;;;;;5031261;28;20080;-51
2022/05/03 04:35:52;;;;;;;9.48;7.35;;;5.70;99.90;;;;;;5031371;28;20099;-51
2022/05/03 04:38:17;;;;;;;11.73;7.97;;;5.70;99.90;;;;;;5035235;28;20625;-54
2022/05/03 04:40:43;;;;;;;9.32;8.40;;;5.80;99.90;;;;;;5035256;28;20083;-52
2022/05/03 04:43:09;;;;;;;17.25;8.85;;;5.90;99.90;;;;;;5033837;28;20030;-56
2022/05/03 04:45:35;;;;;;;10.80;8.30;;;6.00;99.90;;;;;;5034960;28;20392;-56
2022/05/03 04:48:01;;;;;;;14.15;9.88;;;6.00;99.90;;;;;;5035110;28;20033;-56
2022/05/03 04:50:26;;;;;;;13.07;8.48;;;6.10;99.90;;;;;;5035178;28;20078;-55
2022/05/03 04:52:52;;;;;;;9.80;8.80;;;6.20;99.90;;;;;;5034915;28;20040;-57
2022/05/03 04:55:17;;;;;;;12.45;9.55;;;6.30;99.90;;;;;;5035026;28;20018;-57
2022/05/03 04:57:43;;;;;;;14.23;10.50;;;6.40;99.90;;;;;;5034928;28;20100;-56
2022/05/03 05:00:09;;;;;;;17.02;10.98;;;6.50;99.90;;;;;;5034919;28;20567;-57
2022/05/03 05:02:37;;;;;;;19.00;12.90;;;6.70;99.90;;;;;;5034126;28;20061;-57
2022/05/03 05:05:03;;;;;;;15.02;11.90;;;6.90;99.90;;;;;;5033968;28;20026;-54
2022/05/03 05:07:28;;;;;;;12.55;10.00;;;7.10;99.90;;;;;;5034291;28;20025;-56
2022/05/03 05:12:38;;;;;;;14.27;11.93;;;7.30;99.90;;;;;;5034470;28;20045;-55
2022/05/03 05:15:04;;;;;;;13.32;11.30;;;7.40;99.90;;;;;;5034466;28;20421;-57
2022/05/03 05:17:33;;;;;;;15.18;11.25;;;7.50;99.90;;;;;;5034644;28;20373;-56
2022/05/03 05:20:02;;;;;;;15.00;10.23;;;7.60;99.90;;;;;;5034420;28;20120;-54
2022/05/03 05:22:27;;;;;;;12.82;10.80;;;7.70;99.90;;;;;;5034369;28;20041;-52
2022/05/03 05:24:53;;;;;;;14.75;11.02;;;7.80;99.90;;;;;;5034575;28;20393;-57
2022/05/03 05:27:19;;;;;;;12.23;10.88;;;7.90;99.90;;;;;;5034297;28;20033;-55
2022/05/03 05:29:44;;;;;;;17.25;11.38;;;8.10;99.90;;;;;;5034473;28;20033;-56
2022/05/03 05:32:10;;;;;;;12.05;10.77;;;8.10;99.90;;;;;;5034345;28;20057;-57
2022/05/03 05:34:36;;;;;;;14.07;10.68;;;8.20;99.90;;;;;;5034202;28;20033;-55
2022/05/03 05:37:02;;;;;;;13.65;11.05;;;8.40;99.90;;;;;;5034211;28;20523;-54
2022/05/03 05:39:28;;;;;;;15.45;12.55;;;8.50;99.90;;;;;;5033994;28;20013;-56
2022/05/03 05:41:55;;;;;;;16.80;11.32;;;8.60;99.90;;;;;;5034021;28;20029;-56
2022/05/03 05:44:21;;;;;;;18.35;11.30;;;8.70;99.90;;;;;;5034118;28;20048;-55
2022/05/03 05:46:47;;;;;;;17.10;11.13;;;8.80;99.90;;;;;;5032539;28;20040;-56
2022/05/03 05:49:12;;;;;;;12.75;11.35;;;9.00;99.90;;;;;;5034105;28;20025;-55
2022/05/03 05:51:38;;;;;;;14.73;11.85;;;9.20;99.90;;;;;;5032707;28;20441;-55
2022/05/03 05:54:04;;;;;;;18.92;13.07;;;9.40;99.90;;;;;;5034015;28;20026;-56
2022/05/03 05:56:30;;;;;;;11.45;10.15;;;9.50;99.90;;;;;;5033671;28;20480;-57
2022/05/03 05:58:56;;;;;;;12.05;10.55;;;9.70;99.90;;;;;;5033905;28;20030;-54
2022/05/03 06:01:26;;;;;;;16.30;12.45;;;9.70;99.90;;;;;;5033709;28;20022;-57
2022/05/03 06:03:52;;;;;;;15.02;12.07;;;9.80;99.90;;;;;;5033740;28;20026;-55
2022/05/03 06:06:18;;;;;;;14.90;12.80;;;10.00;99.90;;;;;;5032388;28;20029;-54
2022/05/03 06:08:43;;;;;;;13.20;11.80;;;10.00;99.90;;;;;;5033711;28;20056;-57
2022/05/03 06:11:09;;;;;;;12.88;11.55;;;10.20;99.90;;;;;;5033590;28;20031;-54
2022/05/03 06:13:35;;;;;;;17.98;12.02;;;10.30;99.90;;;;;;5033605;28;20484;-57
2022/05/03 06:16:11;;;;;;;17.48;11.90;;;10.40;99.90;;;;;;5033298;28;20129;-54
2022/05/03 06:18:37;;;;;;;13.65;11.63;;;10.40;99.90;;;;;;5033344;28;20034;-57
2022/05/03 06:21:05;;;;;;;13.70;10.77;;;10.50;99.90;;;;;;5033498;28;20095;-57
2022/05/03 06:23:31;;;;;;;17.15;11.75;;;10.70;99.90;;;;;;5033278;28;20017;-56
2022/05/03 06:25:58;;;;;;;11.18;9.73;;;10.70;99.90;;;;;;5033314;28;20032;-54
2022/05/03 06:28:24;;;;;;;16.27;11.40;;;10.90;99.90;;;;;;5033265;28;20013;-55
2022/05/03 06:30:50;;;;;;;11.93;10.68;;;11.10;99.90;;;;;;5033257;28;20128;-56
2022/05/03 06:33:15;;;;;;;14.15;10.00;;;11.20;99.90;;;;;;5033253;28;20052;-55
2022/05/03 06:35:42;;;;;;;12.25;10.40;;;11.30;99.90;;;;;;5033021;28;20021;-54
2022/05/03 06:38:08;;;;;;;18.20;12.32;;;11.50;99.90;;;;;;5033021;28;20120;-55
2022/05/03 06:40:33;;;;;;;14.93;12.52;;;11.60;99.90;;;;;;5032796;28;20156;-56
2022/05/03 06:42:59;;;;;;;12.65;11.18;;;11.70;99.90;;;;;;5033095;28;20036;-57
2022/05/03 06:45:25;;;;;;;13.40;11.90;;;11.80;99.90;;;;;;5032361;28;20489;-54
2022/05/03 06:47:51;;;;;;;12.00;10.77;;;11.90;99.90;;;;;;5033000;28;20088;-57
2022/05/03 06:50:17;;;;;;;13.25;10.60;;;12.00;99.90;;;;;;5032705;28;20033;-54
2022/05/03 06:52:56;;;;;;;13.98;10.38;;;12.10;99.90;;;;;;5032236;28;20029;-53
2022/05/03 06:55:22;;;;;;;10.65;9.27;;;12.30;99.90;;;;;;5031628;28;20551;-54
2022/05/03 06:57:48;;;;;;;11.27;9.73;;;12.40;99.90;;;;;;5032280;28;20465;-53
2022/05/03 07:00:14;;;;;;;11.38;9.45;;;12.50;99.90;;;;;;5031943;28;20025;-54
2022/05/03 07:02:41;;;;;;;15.95;8.90;;;12.70;99.90;;;;;;5032399;28;20027;-58
2022/05/03 07:05:08;;;;;;;11.32;9.95;;;12.80;99.90;;;;;;5032335;28;20021;-57
2022/05/03 07:07:34;;;;;;;15.85;10.75;;;13.00;99.90;;;;;;5032232;28;20053;-53
2022/05/03 07:09:59;;;;;;;10.55;9.25;;;13.10;99.90;;;;;;5031790;28;20032;-55
2022/05/03 07:12:25;;;;;;;10.32;9.25;;;13.30;99.90;;;;;;5032368;28;20022;-51
2022/05/03 07:14:51;;;;;;;11.80;9.82;;;13.40;99.90;;;;;;5032133;28;20128;-54
2022/05/03 07:22:47;;;;;;;11.35;8.63;;;13.80;99.90;;;;;;5032424;28;20049;-56
2022/05/03 07:25:16;;;;;;;14.07;8.05;;;13.90;99.90;;;;;;5032360;28;20033;-56
2022/05/03 07:27:46;;;;;;;11.95;8.60;;;13.90;99.90;;;;;;5031998;28;20029;-53
2022/05/03 07:30:14;;;;;;;9.90;8.13;;;13.80;99.90;;;;;;5032115;28;20104;-54
2022/05/03 07:32:40;;;;;;;12.88;9.20;;;13.80;99.90;;;;;;5032110;28;20059;-58
2022/05/03 07:35:06;;;;;;;16.48;9.18;;;13.80;99.90;;;;;;5031949;28;20435;-53
2022/05/03 07:37:32;;;;;;;14.27;9.27;;;14.00;99.90;;;;;;5032010;28;20109;-52
2022/05/03 07:39:57;;;;;;;10.55;8.10;;;14.30;99.90;;;;;;5031939;28;20026;-52
2022/05/03 07:42:23;;;;;;;11.63;7.93;;;14.60;99.90;;;;;;5031896;28;20021;-58
2022/05/03 07:44:48;;;;;;;16.35;8.10;;;14.70;99.90;;;;;;5031946;28;20021;-54
2022/05/03 07:47:14;;;;;;;12.13;8.48;;;14.80;99.90;;;;;;5031950;28;20029;-55
2022/05/03 07:49:40;;;;;;;11.13;9.70;;;14.80;99.90;;;;;;5031709;28;20487;-55
2022/05/03 07:52:07;;;;;;;9.77;8.45;;;14.70;99.90;;;;;;5030565;28;20114;-52
2022/05/03 07:54:33;;;;;;;11.30;10.00;;;15.00;99.90;;;;;;5031519;28;20029;-54
2022/05/03 07:56:59;;;;;;;12.73;8.27;;;15.20;99.90;;;;;;5030458;28;20070;-56
2022/05/03 07:59:25;;;;;;;12.73;9.35;;;15.40;99.90;;;;;;5030052;28;20108;-55
2022/05/03 08:01:53;;;;;;;9.05;8.13;;;15.40;99.90;;;;;;5030358;28;20029;-56
2022/05/03 08:04:19;;;;;;;11.40;8.30;;;15.40;99.90;;;;;;5031764;28;20108;-58
2022/05/03 08:06:44;;;;;;;8.85;8.02;;;15.70;99.90;;;;;;5031474;28;20667;-56
2022/05/03 08:09:10;;;;;;;11.35;7.68;;;15.90;99.90;;;;;;5031760;28;20144;-49
2022/05/03 08:11:36;;;;;;;11.85;9.15;;;16.10;99.90;;;;;;5031347;28;20017;-54
2022/05/03 08:14:01;;;;;;;13.02;9.32;;;16.00;99.90;;;;;;5031246;28;20026;-57
2022/05/03 08:16:30;;;;;;;12.50;9.30;;;16.00;99.90;;;;;;5031304;28;20036;-57
2022/05/03 08:18:56;;;;;;;14.00;10.60;;;16.10;99.90;;;;;;5031459;28;20079;-56
2022/05/03 08:21:22;;;;;;;10.48;9.00;;;16.40;99.90;;;;;;5031330;28;20108;-57
2022/05/03 08:23:48;;;;;;;11.48;10.27;;;16.50;99.90;;;;;;5031494;28;20101;-58
2022/05/03 08:26:13;;;;;;;13.90;9.75;;;16.50;99.90;;;;;;5031396;28;20033;-57
2022/05/03 08:28:41;;;;;;;10.73;9.45;;;16.40;99.90;;;;;;5031247;28;20065;-55
2022/05/03 08:31:10;;;;;;;13.68;9.90;;;16.40;99.90;;;;;;5031339;28;20458;-54
2022/05/03 08:33:35;;;;;;;9.95;8.38;;;16.40;99.90;;;;;;5031303;28;20057;-55
2022/05/03 08:36:03;;;;;;;12.25;9.75;;;16.40;99.90;;;;;;5029975;28;20053;-56
2022/05/03 08:43:58;;;;;;;10.45;8.75;;;17.00;99.90;;;;;;5031207;28;20167;-54
2022/05/03 08:46:24;;;;;;;11.10;9.77;;;16.90;99.90;;;;;;5030200;28;20147;-56
2022/05/03 08:48:55;;;;;;;15.63;9.82;;;17.00;99.90;;;;;;5029387;28;20033;-56
2022/05/03 08:51:23;;;;;;;13.65;10.45;;;17.50;99.90;;;;;;5030993;28;20360;-57
2022/05/03 08:53:49;;;;;;;11.13;9.95;;;17.40;99.90;;;;;;5031140;28;20026;-58
2022/05/03 08:56:19;;;;;;;11.57;9.65;;;17.60;99.90;;;;;;5031116;28;20067;-52
2022/05/03 08:58:45;;;;;;;10.27;9.18;;;17.60;99.90;;;;;;5031088;28;20511;-58
2022/05/03 09:01:11;;;;;;;11.15;9.38;;;17.70;99.90;;;;;;5031264;28;20515;-58
2022/05/03 09:03:37;;;;;;;9.60;8.63;;;17.60;99.90;;;;;;5030835;28;20034;-58
2022/05/03 09:06:07;;;;;;;13.02;10.32;;;17.70;99.90;;;;;;5031002;28;20033;-52
2022/05/03 09:08:34;;;;;;;9.65;8.75;;;17.80;99.90;;;;;;5030775;28;20026;-54
2022/05/03 09:11:11;;;;;;;12.82;9.63;;;17.90;99.90;;;;;;5029715;28;20029;-56
2022/05/03 09:13:36;;;;;;;8.98;7.13;;;18.40;99.70;;;;;;5030823;28;20048;-55
2022/05/03 09:16:16;;;;;;;9.35;7.75;;;18.40;98.60;;;;;;5030618;28;20046;-57
2022/05/03 09:18:46;;;;;;;13.18;7.45;;;18.70;99.40;;;;;;5030613;28;20057;-53
2022/05/03 09:24:10;;;;;;;10.60;8.88;;;18.70;99.50;;;;;;5034668;28;20052;-57
2022/05/03 09:26:37;;;;;;;10.10;8.13;;;19.00;98.70;;;;;;5034429;28;20030;-55
2022/05/03 09:29:12;;;;;;;7.85;7.05;;;19.40;99.00;;;;;;5034363;28;20036;-55
2022/05/03 09:31:39;;;;;;;10.50;7.70;;;19.30;98.30;;;;;;5033001;28;20029;-58
2022/05/03 09:34:27;;;;;;;8.82;7.93;;;19.60;97.70;;;;;;5034281;28;20105;-58
2022/05/03 09:37:04;;;;;;;7.53;6.47;;;19.70;96.50;;;;;;5034471;28;20579;-58
2022/05/03 09:39:32;;;;;;;9.15;6.78;;;20.10;94.00;;;;;;5033966;28;20033;-56
2022/05/03 09:42:18;;;;;;;12.18;6.82;;;20.50;94.60;;;;;;5034464;28;20037;-57
2022/05/03 09:45:03;;;;;;;6.53;5.75;;;20.80;95.00;;;;;;5034140;28;20602;-56
2022/05/03 09:47:31;;;;;;;7.32;6.45;;;20.40;92.90;;;;;;5033938;28;20037;-56
2022/05/03 09:49:57;;;;;;;7.70;6.80;;;20.00;92.90;;;;;;5034104;28;20026;-58
2022/05/03 09:52:30;;;;;;;12.18;6.70;;;20.00;93.00;;;;;;5033892;28;20034;-57
2022/05/03 09:55:09;;;;;;;10.93;6.75;;;19.70;92.50;;;;;;5033495;28;20057;-56
2022/05/03 09:57:37;;;;;;;10.13;7.10;;;20.00;93.80;;;;;;5032686;28;20021;-54
2022/05/03 10:00:05;;;;;;;12.05;6.70;;;20.40;93.10;;;;;;5032515;28;20036;-56
2022/05/03 10:02:32;;;;;;;6.80;5.57;;;21.00;90.90;;;;;;5030891;28;20037;-54
2022/05/03 10:04:58;;;;;;;6.90;6.20;;;21.30;90.90;;;;;;5031107;28;20021;-55
2022/05/03 10:07:26;;;;;;;7.80;6.22;;;21.30;91.20;;;;;;5033220;28;20022;-52
2022/05/03 10:09:52;;;;;;;7.72;6.05;;;21.60;89.20;;;;;;5033015;28;20034;-53
2022/05/03 10:12:19;;;;;;;10.70;6.75;;;21.50;89.50;;;;;;5032545;28;20418;-51
2022/05/03 10:14:46;;;;;;;6.90;6.00;;;21.20;88.60;;;;;;5031151;28;20567;-54
2022/05/03 10:22:59;;;;;;;7.47;5.43;;;21.00;85.20;;;;;;5033553;28;20112;-56
2022/05/03 10:25:29;;;;;;;6.75;6.07;;;21.30;86.10;;;;;;5033137;28;20052;-54
2022/05/03 10:27:56;;;;;;;7.05;6.35;;;21.50;82.40;;;;;;5033460;28;20042;-57
2022/05/03 10:30:24;;;;;;;5.82;4.82;;;21.00;82.20;;;;;;5033087;28;20029;-58
2022/05/03 10:33:20;;;;;;;6.85;4.82;;;21.10;83.80;;;;;;5033200;28;20049;-56
2022/05/03 10:35:47;;;;;;;6.10;5.15;;;21.00;80.90;;;;;;5033267;28;20465;-57
2022/05/03 10:38:13;;;;;;;7.03;4.78;;;21.50;76.60;;;;;;5032266;28;20026;-56
2022/05/03 10:40:48;;;;;;;7.05;4.50;;;21.90;74.40;;;;;;5032345;28;20018;-58
2022/05/03 10:43:27;;;;;;;6.13;4.43;;;22.00;74.80;;;;;;5032726;28;20032;-56
2022/05/03 10:45:57;;;;;;;5.82;4.22;;;22.50;76.20;;;;;;5032994;28;20025;-55
2022/05/03 10:48:30;;;;;;;8.27;4.97;;;23.10;72.80;;;;;;5032993;28;20358;-56
2022/05/03 10:51:00;;;;;;;6.55;4.97;;;23.40;71.10;;;;;;5032982;28;20501;-56
2022/05/03 10:53:27;;;;;;;5.85;4.50;;;22.90;69.90;;;;;;5032838;28;20155;-57
2022/05/03 10:56:16;;;;;;;9.50;5.13;;;22.80;71.10;;;;;;5032650;28;20469;-59
2022/05/03 10:58:47;;;;;;;6.63;4.75;;;23.00;65.40;;;;;;5032591;28;20048;-55
2022/05/03 11:01:21;;;;;;;4.50;4.07;;;23.70;62.90;;;;;;5032594;28;20028;-54
2022/05/03 11:03:52;;;;;;;6.35;4.45;;;23.70;62.70;;;;;;5032759;28;20026;-57
2022/05/03 11:06:23;;;;;;;11.40;4.40;;;23.30;64.60;;;;;;5032539;28;20033;-57
2022/05/03 11:11:44;;;;;;;9.18;3.88;;;23.40;60.40;;;;;;5032398;28;20040;-58
2022/05/03 11:14:19;;;;;;;6.60;4.32;;;24.00;61.40;;;;;;5032228;28;20431;-56
2022/05/03 11:17:08;;;;;;;5.78;3.72;;;23.80;60.00;;;;;;5032279;28;20033;-59
2022/05/03 11:19:50;;;;;;;5.53;3.60;;;23.10;63.80;;;;;;5032147;28;20104;-57
2022/05/03 11:22:19;;;;;;;6.88;3.33;;;23.10;62.10;;;;;;5032507;28;20026;-55
2022/05/03 11:24:55;;;;;;;9.27;4.07;;;23.60;60.30;;;;;;5032257;28;20030;-56
2022/05/03 11:27:22;;;;;;;5.65;4.38;;;23.90;62.10;;;;;;5032127;28;20033;-58
2022/05/03 11:29:54;;;;;;;11.85;5.30;;;24.30;67.80;;;;;;5032111;28;20477;-58
2022/05/03 11:32:28;;;;;;;4.50;4.10;;;24.60;64.10;;;;;;5032290;28;20052;-56
2022/05/03 11:35:13;;;;;;;7.03;4.93;;;24.90;65.30;;;;;;5031945;28;20372;-59
2022/05/03 11:37:52;;;;;;;8.73;5.38;;;25.50;63.00;;;;;;5031885;28;20022;-58
2022/05/03 11:40:23;;;;;;;9.48;6.88;;;24.90;63.60;;;;;;5030919;28;20024;-58
2022/05/03 11:42:49;;;;;;;7.32;6.47;;;24.40;64.60;;;;;;5030652;28;20017;-58
2022/05/03 11:45:16;;;;;;;5.90;5.20;;;23.70;66.40;;;;;;5031402;28;20037;-58
2022/05/03 11:47:47;;;;;;;6.07;5.15;;;23.70;65.70;;;;;;5032001;28;20038;-56
2022/05/03 11:55:58;;;;;;;8.40;5.40;;;25.00;65.70;;;;;;5031858;28;20117;-57
2022/05/03 11:56:01;;;;;;;7.13;6.43;;;26.10;61.60;;;;;;5031791;28;20480;-57
2022/05/03 11:58:30;;;;;;;8.60;6.30;;;24.90;60.90;;;;;;5031529;28;20030;-59
2022/05/03 12:00:55;;;;;;;7.75;5.97;;;24.60;63.90;;;;;;5031724;28;20108;-58
2022/05/03 12:03:21;;;;;;;10.50;6.25;;;24.20;65.10;;;;;;5029168;28;20164;-59
2022/05/03 12:05:58;;;;;;;8.27;6.43;;;24.80;66.40;;;;;;5019069;28;20040;-58
2022/05/03 12:08:24;;;;;;;13.45;7.18;;;25.00;60.10;;;;;;5016946;28;20040;-59
2022/05/03 12:10:51;;;;;;;7.65;6.85;;;26.20;61.60;;;;;;5016368;28;20488;-59
2022/05/03 12:13:23;;;;;;;6.60;5.63;;;26.80;60.00;;;;;;5019213;28;20059;-59
2022/05/03 12:15:59;;;;;;;6.93;6.07;;;26.60;58.20;;;;;;5020117;28;20045;-58
2022/05/03 12:18:29;;;;;;;8.63;5.40;;;26.60;56.70;;;;;;5020397;28;20493;-57
2022/05/03 12:21:14;;;;;;;8.60;5.20;;;26.90;56.50;;;;;;5020786;28;20116;-58
2022/05/03 12:23:42;;;;;;;5.35;4.53;;;27.50;56.50;;;;;;5020157;28;20146;-59
2022/05/03 12:26:17;;;;;;;7.55;4.72;;;28.70;56.40;;;;;;5020173;28;20056;-60
2022/05/03 12:28:59;;;;;;;9.25;4.45;;;29.40;50.40;;;;;;5020536;28;20037;-54
2022/05/03 12:31:36;;;;;;;6.43;4.45;;;29.50;51.40;;;;;;5019328;28;20033;-57
2022/05/03 12:34:09;;;;;;;6.65;4.28;;;29.90;47.80;;;;;;5019910;28;20034;-57
2022/05/03 12:36:44;;;;;;;9.50;4.18;;;29.90;47.30;;;;;;5019812;28;20112;-57
2022/05/03 12:39:19;;;;;;;9.00;3.75;;;30.70;46.90;;;;;;5020626;28;20025;-57
2022/05/03 12:42:06;;;;;;;7.43;3.90;;;32.10;44.20;;;;;;5020574;28;20079;-57
2022/05/03 12:44:51;;;;;;;7.68;4.10;;;30.90;43.70;;;;;;5019382;28;20112;-57
2022/05/03 12:47:17;;;;;;;6.47;4.70;;;28.30;48.00;;;;;;5020388;28;20029;-57
2022/05/03 12:49:43;;;;;;;10.13;3.90;;;26.90;47.40;;;;;;5020422;28;20025;-58
2022/05/03 12:52:08;;;;;;;7.47;3.90;;;26.50;49.30;;;;;;5020707;28;20037;-55
2022/05/03 12:54:42;;;;;;;6.20;3.60;;;26.40;51.50;;;;;;5019679;28;20455;-59
2022/05/03 12:59:54;;;;;;;10.05;4.07;;;27.30;50.20;;;;;;5024038;28;20142;-58
2022/05/03 13:02:20;;;;;;;7.43;3.15;;;28.40;47.40;;;;;;5024055;28;20033;-60
2022/05/03 13:04:46;;;;;;;8.27;4.30;;;29.90;49.00;;;;;;5024428;28;20029;-60
2022/05/03 13:07:11;;;;;;;8.32;2.55;;;30.20;45.70;;;;;;5023878;28;20139;-57
2022/05/03 13:09:37;;;;;;;7.03;2.63;;;30.10;43.40;;;;;;5023426;28;20069;-58
2022/05/03 13:12:04;;;;;;;14.07;3.10;;;31.10;42.60;;;;;;5023947;28;20033;-57
2022/05/03 13:14:31;;;;;;;8.45;3.35;;;30.70;41.50;;;;;;5023417;28;20046;-58
2022/05/03 13:16:58;;;;;;;9.38;3.90;;;31.10;41.20;;;;;;5023442;28;20022;-57
2022/05/03 13:19:24;;;;;;;6.43;3.40;;;31.10;39.50;;;;;;5023849;28;20476;-57
2022/05/03 13:21:53;;;;;;;9.60;3.15;;;31.90;40.70;;;;;;5023947;28;20034;-57
2022/05/03 13:24:19;;;;;;;4.68;2.63;;;32.10;41.40;;;;;;5023537;28;20064;-58
2022/05/03 13:26:45;;;;;;;8.00;3.22;;;30.50;40.90;;;;;;5023589;28;20546;-57
2022/05/03 13:29:13;;;;;;;9.68;3.33;;;27.40;41.50;;;;;;5024051;28;20056;-55
2022/05/03 13:31:39;;;;;;;11.98;3.08;;;25.40;46.10;;;;;;5023310;28;20041;-52
2022/05/03 13:34:06;;;;;;;7.93;3.97;;;24.50;47.90;;;;;;5023610;28;20025;-55
2022/05/03 13:42:00;;;;;;;9.55;3.95;;;23.80;53.00;;;;;;5023859;28;20032;-59
2022/05/03 13:44:25;;;;;;;7.78;3.15;;;24.70;50.80;;;;;;5023743;28;20025;-59
2022/05/03 13:46:52;;;;;;;6.28;2.70;;;25.50;50.80;;;;;;5023062;28;20109;-54